Time;durP1;ratioP1;P1;durP2;ratioP2;P2;SDS_P1;SDS_P2;PMS_P1;PMS_P2;Temp;Humidity;BMP_temperature;BMP_pressure;BME280_temperature;BME280_humidity;BME280_pressure;Samples;Min_cycle;Max_cycle;Signal;HPM_P1;HPM_P2
2023/07/13 06:21:25;;;;;;;;;;;24.50;99.90;;;;;;4590784;19;20293;-26
2023/07/13 06:22:56;;;;;;;;;;;24.40;99.90;;;;;;4589665;19;19936;-26
2023/07/13 06:24:27;;;;;;;;;;;24.40;99.90;;;;;;4588157;19;20249;-25
2023/07/13 06:25:58;;;;;;;;;;;24.40;99.90;;;;;;4588982;19;19914;-26
2023/07/13 06:27:30;;;;;;;;;;;24.40;99.90;;;;;;4589602;19;19911;-27
2023/07/13 06:29:01;;;;;;;;;;;24.40;99.90;;;;;;4589303;19;20006;-31
2023/07/13 06:30:33;;;;;;;;;;;24.40;99.90;;;;;;4588982;19;19994;-29
2023/07/13 06:32:05;;;;;;;;;;;24.40;99.90;;;;;;4588633;19;19939;-30
2023/07/13 06:33:36;;;;;;;;;;;24.40;99.90;;;;;;4588398;19;19930;-25
2023/07/13 06:35:26;;;;;;;;;;;24.40;99.90;;;;;;4589272;19;19936;-29
2023/07/13 06:39:06;;;;;;;;;;;24.30;99.90;;;;;;4588434;19;19942;-28
2023/07/13 06:40:38;;;;;;;;;;;24.30;99.90;;;;;;4589819;19;19936;-26
2023/07/13 06:42:09;;;;;;;;;;;24.30;99.90;;;;;;4588987;19;19922;-25
2023/07/13 06:43:40;;;;;;;;;;;24.30;99.90;;;;;;4589255;19;19915;-27
2023/07/13 06:45:11;;;;;;;;;;;24.30;99.90;;;;;;4589081;19;19918;-31
2023/07/13 06:46:44;;;;;;;;;;;24.20;99.90;;;;;;4589081;19;19922;-26
2023/07/13 06:48:15;;;;;;;;;;;24.20;99.90;;;;;;4589057;19;19919;-26
2023/07/13 06:49:47;;;;;;;;;;;24.20;99.90;;;;;;4588794;19;19929;-25
2023/07/13 06:58:16;;;;;;;;;;;24.20;99.90;;;;;;4590541;19;19950;-25
2023/07/13 06:59:47;;;;;;;;;;;24.20;99.90;;;;;;4591611;19;19915;-31
2023/07/13 07:01:18;;;;;;;;;;;24.20;99.90;;;;;;4589754;19;20239;-28
2023/07/13 07:02:50;;;;;;;;;;;24.10;99.90;;;;;;4590420;19;19919;-28
2023/07/13 07:04:21;;;;;;;;;;;24.10;99.90;;;;;;4590752;19;20268;-29
2023/07/13 07:05:51;;;;;;;;;;;24.10;99.90;;;;;;4590912;19;19966;-26
2023/07/13 07:07:24;;;;;;;;;;;24.10;99.90;;;;;;4590472;19;19919;-25
2023/07/13 07:08:56;;;;;;;;;;;24.10;99.90;;;;;;4588538;19;19918;-26
2023/07/13 07:10:29;;;;;;;;;;;24.10;99.90;;;;;;4591503;19;19915;-25
2023/07/13 07:12:02;;;;;;;;;;;24.10;99.90;;;;;;4592073;19;19990;-27
2023/07/13 07:13:33;;;;;;;;;;;24.10;99.90;;;;;;4588692;19;20001;-25
2023/07/13 07:15:04;;;;;;;;;;;24.10;99.90;;;;;;4589289;19;19919;-25
2023/07/13 07:16:36;;;;;;;;;;;24.10;99.90;;;;;;4590391;19;19919;-25
2023/07/13 07:18:08;;;;;;;;;;;24.10;99.90;;;;;;4590640;19;19935;-25
2023/07/13 07:19:40;;;;;;;;;;;24.10;99.90;;;;;;4589245;19;19915;-28
2023/07/13 07:21:12;;;;;;;;;;;24.10;99.90;;;;;;4589191;19;20324;-26
2023/07/13 07:22:43;;;;;;;;;;;24.10;99.90;;;;;;4589475;19;19923;-30
2023/07/13 07:24:15;;;;;;;;;;;24.10;99.90;;;;;;4589531;19;20373;-29
2023/07/13 07:25:46;;;;;;;;;;;24.10;99.90;;;;;;4590323;19;19934;-25
2023/07/13 07:27:18;;;;;;;;;;;24.10;99.90;;;;;;4588967;19;20341;-24
2023/07/13 07:28:54;;;;;;;;;;;24.10;99.90;;;;;;4589938;19;19915;-25
2023/07/13 07:30:32;;;;;;;;;;;24.10;99.90;;;;;;4587698;19;20260;-24
2023/07/13 07:32:06;;;;;;;;;;;24.10;99.90;;;;;;4588945;19;20234;-26
2023/07/13 07:33:42;;;;;;;;;;;24.10;99.90;;;;;;4589059;19;20328;-25
2023/07/13 07:35:19;;;;;;;;;;;24.20;99.90;;;;;;4590436;19;19923;-29
2023/07/13 07:36:54;;;;;;;;;;;24.20;99.90;;;;;;4590040;19;19943;-25
2023/07/13 07:38:30;;;;;;;;;;;24.30;99.90;;;;;;4589695;19;19914;-26
2023/07/13 07:40:10;;;;;;;;;;;24.40;99.90;;;;;;4590315;19;19927;-24
2023/07/13 07:41:42;;;;;;;;;;;24.50;99.90;;;;;;4589347;19;19915;-28
2023/07/13 07:43:14;;;;;;;;;;;24.60;99.90;;;;;;4588955;19;20377;-25
2023/07/13 07:44:46;;;;;;;;;;;24.70;99.90;;;;;;4589296;19;19930;-29
2023/07/13 07:46:18;;;;;;;;;;;24.80;99.90;;;;;;4587214;19;19914;-26
2023/07/13 07:47:51;;;;;;;;;;;24.90;99.90;;;;;;4587650;19;19978;-25
2023/07/13 07:49:23;;;;;;;;;;;25.10;99.90;;;;;;4587431;19;19925;-27
2023/07/13 07:50:55;;;;;;;;;;;25.20;99.90;;;;;;4588752;19;19935;-27
2023/07/13 07:52:26;;;;;;;;;;;25.30;99.90;;;;;;4591836;19;20348;-25
2023/07/13 07:53:59;;;;;;;;;;;25.30;99.90;;;;;;4592264;19;19918;-26
2023/07/13 07:55:33;;;;;;;;;;;25.40;99.90;;;;;;4591971;19;19918;-29
2023/07/13 07:57:05;;;;;;;;;;;25.50;99.90;;;;;;4591850;19;19991;-25
2023/07/13 07:58:37;;;;;;;;;;;25.60;99.90;;;;;;4591732;19;19919;-24
2023/07/13 08:00:09;;;;;;;;;;;25.60;99.90;;;;;;4592032;19;19914;-24
2023/07/13 08:01:43;;;;;;;;;;;25.70;99.90;;;;;;4591611;19;19921;-25
2023/07/13 08:03:15;;;;;;;;;;;25.70;99.90;;;;;;4591650;19;19934;-30
2023/07/13 08:04:52;;;;;;;;;;;25.70;99.90;;;;;;4591933;19;19919;-26
2023/07/13 08:06:32;;;;;;;;;;;25.80;99.90;;;;;;4592221;19;19914;-26
2023/07/13 08:08:07;;;;;;;;;;;25.80;99.90;;;;;;4592078;19;19917;-25
2023/07/13 08:09:41;;;;;;;;;;;25.70;99.90;;;;;;4592386;19;20009;-25
2023/07/13 08:11:14;;;;;;;;;;;25.70;99.90;;;;;;4591515;19;19921;-25
2023/07/13 08:12:50;;;;;;;;;;;25.70;99.90;;;;;;4591763;19;19959;-25
2023/07/13 08:14:26;;;;;;;;;;;25.70;99.90;;;;;;4590206;19;19919;-26
2023/07/13 08:16:08;;;;;;;;;;;25.70;99.90;;;;;;4591805;19;20019;-24
2023/07/13 08:17:55;;;;;;;;;;;25.70;99.90;;;;;;4591353;19;19923;-25
2023/07/13 08:19:40;;;;;;;;;;;25.60;99.90;;;;;;4590418;19;19922;-26
2023/07/13 08:21:25;;;;;;;;;;;25.60;99.90;;;;;;4591798;19;19918;-25
2023/07/13 08:23:10;;;;;;;;;;;25.50;99.90;;;;;;4592191;19;19987;-28
2023/07/13 08:24:45;;;;;;;;;;;25.50;99.90;;;;;;4591277;19;19921;-25
2023/07/13 08:26:22;;;;;;;;;;;25.50;99.90;;;;;;4591664;19;19914;-25
2023/07/13 08:28:08;;;;;;;;;;;25.40;99.90;;;;;;4591560;19;20305;-25
2023/07/13 08:29:39;;;;;;;;;;;25.40;99.90;;;;;;4591617;19;20368;-28
2023/07/13 08:31:11;;;;;;;;;;;25.40;99.90;;;;;;4591413;19;19938;-25
2023/07/13 08:32:41;;;;;;;;;;;25.40;99.90;;;;;;4546982;19;20291;-25
2023/07/13 08:34:14;;;;;;;;;;;25.20;99.90;;;;;;4591549;19;19926;-25
2023/07/13 08:35:46;;;;;;;;;;;23.40;99.90;;;;;;4591290;19;19983;-31
2023/07/13 08:37:18;;;;;;;;;;;22.20;99.90;;;;;;4592141;19;19921;-28
2023/07/13 08:38:52;;;;;;;;;;;21.50;99.90;;;;;;4591050;19;19923;-24
2023/07/13 08:40:31;;;;;;;;;;;21.10;99.90;;;;;;4591217;19;19915;-28
2023/07/13 08:42:16;;;;;;;;;;;20.80;99.90;;;;;;4591581;19;19942;-28
2023/07/13 08:44:00;;;;;;;;;;;20.70;99.90;;;;;;4591834;19;19926;-25
2023/07/13 08:45:41;;;;;;;;;;;20.60;99.90;;;;;;4591242;19;19921;-24
2023/07/13 08:47:17;;;;;;;;;;;20.50;99.90;;;;;;4590888;19;19911;-26
2023/07/13 08:49:03;;;;;;;;;;;20.50;99.90;;;;;;4590875;19;20014;-25
2023/07/13 08:51:01;;;;;;;;;;;20.50;99.90;;;;;;4589864;19;19917;-27
2023/07/13 08:52:35;;;;;;;;;;;20.50;99.90;;;;;;4591554;19;19918;-24
2023/07/13 08:54:24;;;;;;;;;;;20.40;99.90;;;;;;4592467;19;19919;-24
2023/07/13 08:56:00;;;;;;;;;;;20.40;99.90;;;;;;4592755;19;19911;-28
2023/07/13 08:57:34;;;;;;;;;;;20.40;99.90;;;;;;4591573;19;19978;-25
2023/07/13 08:59:14;;;;;;;;;;;20.40;99.90;;;;;;4591578;19;19926;-28
2023/07/13 09:00:57;;;;;;;;;;;20.40;99.90;;;;;;4591467;19;19948;-26
2023/07/13 09:02:42;;;;;;;;;;;20.40;99.90;;;;;;4591686;19;20340;-30
2023/07/13 09:04:23;;;;;;;;;;;20.40;99.90;;;;;;4592588;19;19919;-31
2023/07/13 09:06:04;;;;;;;;;;;20.40;99.90;;;;;;4591489;19;20337;-26
2023/07/13 09:07:54;;;;;;;;;;;20.40;99.90;;;;;;4591434;19;19950;-25
2023/07/13 09:09:43;;;;;;;;;;;20.40;99.90;;;;;;4593190;19;20328;-27
2023/07/13 09:11:39;;;;;;;;;;;20.50;99.90;;;;;;4592501;19;19933;-25
2023/07/13 09:13:29;;;;;;;;;;;20.40;99.90;;;;;;4591432;19;19915;-28
2023/07/13 09:15:27;;;;;;;;;;;20.50;99.90;;;;;;4592182;19;19919;-24
2023/07/13 09:17:20;;;;;;;;;;;20.50;99.90;;;;;;4592778;19;19923;-25
2023/07/13 09:19:07;;;;;;;;;;;20.50;99.90;;;;;;4591159;19;19935;-27
2023/07/13 09:20:55;;;;;;;;;;;20.50;99.90;;;;;;4592373;19;19927;-24
2023/07/13 09:22:29;;;;;;;;;;;20.50;99.90;;;;;;4591271;19;19918;-29
2023/07/13 09:24:23;;;;;;;;;;;20.50;99.90;;;;;;4591420;19;19919;-28
2023/07/13 09:26:23;;;;;;;;;;;20.50;99.90;;;;;;4589656;19;19921;-25
2023/07/13 09:28:13;;;;;;;;;;;20.50;99.90;;;;;;4590081;19;19922;-24
2023/07/13 09:30:01;;;;;;;;;;;20.50;99.90;;;;;;4590201;19;19925;-24
2023/07/13 09:31:49;;;;;;;;;;;20.50;99.90;;;;;;4590100;19;19925;-26
2023/07/13 09:33:31;;;;;;;;;;;20.50;99.90;;;;;;4589975;19;19982;-24
2023/07/13 09:35:13;;;;;;;;;;;20.50;99.90;;;;;;4589548;19;19925;-24
2023/07/13 09:37:13;;;;;;;;;;;20.60;99.90;;;;;;4589006;19;19915;-30
2023/07/13 09:39:03;;;;;;;;;;;20.60;99.90;;;;;;4590008;19;19922;-28
2023/07/13 09:41:02;;;;;;;;;;;20.60;99.90;;;;;;4589542;19;19931;-25
2023/07/13 09:42:50;;;;;;;;;;;20.60;99.90;;;;;;4589510;19;19985;-24
2023/07/13 09:44:35;;;;;;;;;;;20.60;99.90;;;;;;4589646;19;19964;-26
2023/07/13 09:46:24;;;;;;;;;;;20.60;99.90;;;;;;4590083;19;19970;-24
2023/07/13 09:48:16;;;;;;;;;;;20.60;99.90;;;;;;4589640;19;19926;-24
2023/07/13 09:50:04;;;;;;;;;;;20.60;99.90;;;;;;4589286;19;20015;-27
2023/07/13 09:51:46;;;;;;;;;;;20.60;99.90;;;;;;4589685;19;20012;-29
2023/07/13 09:53:29;;;;;;;;;;;20.60;99.90;;;;;;4589384;19;19950;-24
2023/07/13 09:55:06;;;;;;;;;;;20.70;99.90;;;;;;4589230;19;19918;-25
2023/07/13 09:56:39;;;;;;;;;;;20.60;99.90;;;;;;4588855;19;19911;-24
2023/07/13 09:58:22;;;;;;;;;;;20.70;99.90;;;;;;4588852;19;20361;-26
2023/07/13 09:59:54;;;;;;;;;;;20.70;99.90;;;;;;4589385;19;19915;-25
2023/07/13 10:01:35;;;;;;;;;;;20.70;99.90;;;;;;4589530;19;19993;-27
2023/07/13 10:03:23;;;;;;;;;;;20.70;99.90;;;;;;4589797;19;19939;-25
2023/07/13 10:05:04;;;;;;;;;;;20.70;99.90;;;;;;4589670;19;19917;-29
2023/07/13 10:06:35;;;;;;;;;;;20.70;99.90;;;;;;4589143;19;19919;-28
2023/07/13 10:08:10;;;;;;;;;;;20.70;99.90;;;;;;4589298;19;19925;-22
2023/07/13 10:09:41;;;;;;;;;;;20.70;99.90;;;;;;4590088;19;19926;-25
2023/07/13 10:11:23;;;;;;;;;;;20.70;99.90;;;;;;4588249;19;20016;-28
2023/07/13 10:12:55;;;;;;;;;;;20.70;99.90;;;;;;4587787;19;20303;-24
2023/07/13 10:14:27;;;;;;;;;;;20.80;99.90;;;;;;4587524;19;19923;-27
2023/07/13 10:15:58;;;;;;;;;;;20.80;99.90;;;;;;4589141;19;20325;-28
